Time;durP1;ratioP1;P1;durP2;ratioP2;P2;SDS_P1;SDS_P2;PMS_P1;PMS_P2;Temp;Humidity;BMP_temperature;BMP_pressure;BME280_temperature;BME280_humidity;BME280_pressure;Samples;Min_cycle;Max_cycle;Signal;HPM_P1;HPM_P2
2022/10/20 00:00:53;;;;;;;11.23;5.30;;;7.90;99.90;;;;;;4968622;28;20037;-75
2022/10/20 00:03:18;;;;;;;16.48;5.57;;;7.90;99.90;;;;;;4971076;28;20089;-75
2022/10/20 00:05:44;;;;;;;8.00;5.22;;;7.90;99.90;;;;;;4970452;28;20070;-74
2022/10/20 00:08:09;;;;;;;11.38;4.90;;;7.70;99.90;;;;;;4971592;28;20422;-75
2022/10/20 00:10:35;;;;;;;13.57;4.72;;;7.60;99.90;;;;;;4967743;28;20050;-74
2022/10/20 00:13:01;;;;;;;8.55;4.60;;;7.60;99.90;;;;;;4969182;28;20544;-73
2022/10/20 00:15:26;;;;;;;17.95;5.82;;;7.70;99.90;;;;;;4967966;28;20133;-74
2022/10/20 00:17:52;;;;;;;8.05;4.50;;;7.60;99.90;;;;;;4971377;28;20113;-76
2022/10/20 00:20:18;;;;;;;12.32;6.20;;;7.70;99.90;;;;;;4969090;28;20042;-74
2022/10/20 00:22:43;;;;;;;6.65;4.32;;;7.60;99.90;;;;;;4968393;28;20097;-74
2022/10/20 00:25:09;;;;;;;10.23;5.13;;;7.60;99.90;;;;;;4971036;28;20042;-73
2022/10/20 00:27:35;;;;;;;14.48;4.53;;;7.60;99.90;;;;;;4949627;28;20047;-75
2022/10/20 00:30:00;;;;;;;8.70;4.38;;;7.30;99.90;;;;;;4966991;28;20398;-73
2022/10/20 00:32:28;;;;;;;8.52;5.47;;;7.50;99.90;;;;;;4969287;28;20070;-74
2022/10/20 00:34:54;;;;;;;13.95;6.03;;;7.30;99.90;;;;;;4969063;28;20086;-73
2022/10/20 00:37:19;;;;;;;12.20;5.43;;;7.30;99.90;;;;;;4965982;28;20075;-74
2022/10/20 00:39:45;;;;;;;13.77;4.95;;;7.40;99.90;;;;;;4970019;28;20414;-75
2022/10/20 00:42:15;;;;;;;6.72;4.60;;;7.50;99.90;;;;;;4965964;28;20050;-74
2022/10/20 00:44:53;;;;;;;10.20;5.25;;;7.20;99.90;;;;;;4969840;28;20039;-74
2022/10/20 00:47:42;;;;;;;10.30;4.10;;;7.20;99.90;;;;;;4967289;28;20043;-73
2022/10/20 00:50:16;;;;;;;10.55;4.80;;;7.40;99.90;;;;;;4954812;28;20121;-76
2022/10/20 00:52:44;;;;;;;12.73;6.10;;;7.30;99.90;;;;;;4966590;28;20156;-75
2022/10/20 00:55:13;;;;;;;8.05;4.65;;;7.20;99.90;;;;;;4968210;28;20121;-75
2022/10/20 00:57:41;;;;;;;16.50;5.73;;;7.40;99.90;;;;;;4967893;28;20039;-75
2022/10/20 01:00:07;;;;;;;9.80;4.82;;;7.20;99.90;;;;;;4967727;28;20045;-75
2022/10/20 01:02:34;;;;;;;12.45;4.50;;;7.20;99.90;;;;;;5036082;23;20079;-74
2022/10/20 01:05:00;;;;;;;10.07;5.55;;;7.30;99.90;;;;;;4959570;28;20039;-74
2022/10/20 01:07:26;;;;;;;10.68;5.60;;;7.20;99.90;;;;;;4969271;28;20407;-75
2022/10/20 01:09:52;;;;;;;7.70;5.13;;;7.20;99.90;;;;;;4969964;28;20038;-76
2022/10/20 01:12:52;;;;;;;10.05;5.43;;;7.20;99.90;;;;;;4965104;28;20477;-76
2022/10/20 01:15:30;;;;;;;;;;;7.20;99.90;;;;;;4970924;28;20054;-75
2022/10/20 01:18:03;;;;;;;12.40;4.97;;;6.90;99.90;;;;;;4969543;28;19968;-76
2022/10/20 01:20:45;;;;;;;13.73;6.05;;;7.00;99.90;;;;;;4971459;28;20043;-74
2022/10/20 01:23:33;;;;;;;10.27;4.82;;;7.10;99.90;;;;;;4971044;28;20367;-74
2022/10/20 01:26:20;;;;;;;10.60;5.40;;;6.90;99.90;;;;;;4969252;28;20054;-74
2022/10/20 01:28:49;;;;;;;10.90;4.20;;;7.00;99.90;;;;;;4961574;28;20059;-73
2022/10/20 01:31:27;;;;;;;10.83;5.10;;;6.80;99.90;;;;;;4970089;28;20046;-76
2022/10/20 01:33:57;;;;;;;14.68;5.60;;;7.00;99.90;;;;;;4952072;28;20483;-74
2022/10/20 01:36:27;;;;;;;;;;;6.80;99.90;;;;;;4969355;28;20050;-76
2022/10/20 01:39:09;;;;;;;;;;;7.00;99.90;;;;;;4967817;28;19926;-75
2022/10/20 01:41:40;;;;;;;;;;;6.80;99.90;;;;;;4958043;28;19930;-74
2022/10/20 01:44:10;;;;;;;10.70;5.85;;;6.80;99.90;;;;;;4960619;28;20360;-74
2022/10/20 01:46:37;;;;;;;;;;;6.70;99.90;;;;;;4996498;28;20050;-74
2022/10/20 01:49:03;;;;;;;;;;;6.90;99.90;;;;;;4964619;28;20012;-74
2022/10/20 01:51:30;;;;;;;8.55;4.95;;;6.90;99.90;;;;;;4968945;28;19926;-76
2022/10/20 01:53:55;;;;;;;;;;;6.80;99.90;;;;;;4970725;28;20078;-76
2022/10/20 01:56:29;;;;;;;;;;;6.70;99.90;;;;;;4969347;28;20068;-76
2022/10/20 01:59:04;;;;;;;;;;;6.80;99.90;;;;;;4968485;28;19949;-76
2022/10/20 02:01:42;;;;;;;;;;;6.50;99.90;;;;;;4958259;28;20269;-74
2022/10/20 02:04:08;;;;;;;;;;;6.40;99.90;;;;;;4947384;28;20021;-74
2022/10/20 02:06:42;;;;;;;;;;;6.50;99.90;;;;;;4960516;28;20441;-75
2022/10/20 02:09:14;;;;;;;;;;;6.40;99.90;;;;;;4954298;28;19972;-74
2022/10/20 02:11:43;;;;;;;;;;;6.30;99.90;;;;;;4967663;28;20021;-77
2022/10/20 02:14:11;;;;;;;;;;;6.40;99.90;;;;;;4969668;28;20002;-76
2022/10/20 02:16:39;;;;;;;;;;;6.60;99.90;;;;;;4967818;28;20076;-74
2022/10/20 02:19:06;;;;;;;;;;;6.80;99.90;;;;;;4971070;28;20289;-75
2022/10/20 02:21:31;;;;;;;;;;;6.60;99.90;;;;;;4969193;28;20678;-74
2022/10/20 02:24:02;;;;;;;;;;;6.60;99.90;;;;;;4967253;28;19982;-74
2022/10/20 02:26:29;;;;;;;;;;;6.50;99.90;;;;;;4951986;28;19976;-72
2022/10/20 02:28:59;;;;;;;;;;;6.40;99.90;;;;;;4963568;28;20324;-76
2022/10/20 02:31:25;;;;;;;;;;;6.10;99.90;;;;;;4966585;28;19949;-76
2022/10/20 02:33:52;;;;;;;;;;;6.20;99.90;;;;;;4970541;28;20381;-75
2022/10/20 02:36:18;;;;;;;;;;;6.50;99.90;;;;;;4967181;28;20544;-75
2022/10/20 02:38:44;;;;;;;;;;;6.30;99.90;;;;;;4968334;28;19944;-74
2022/10/20 02:41:10;;;;;;;;;;;6.50;99.90;;;;;;4961726;28;19926;-75
2022/10/20 02:43:35;;;;;;;;;;;6.30;99.90;;;;;;4955131;28;20017;-75
2022/10/20 02:46:01;;;;;;;;;;;6.30;99.90;;;;;;4970308;28;19957;-74
2022/10/20 02:48:26;;;;;;;;;;;6.30;99.90;;;;;;4960229;28;19922;-74
2022/10/20 02:50:52;;;;;;;;;;;6.30;99.90;;;;;;4968267;28;19922;-74
2022/10/20 02:53:17;;;;;;;9.52;4.85;;;6.50;99.90;;;;;;4968732;28;19922;-75
2022/10/20 02:55:43;;;;;;;;;;;6.50;99.90;;;;;;4969333;28;20644;-74
2022/10/20 02:58:08;;;;;;;;;;;6.30;99.90;;;;;;4967604;28;20008;-73
2022/10/20 03:00:34;;;;;;;;;;;6.20;99.90;;;;;;4951135;28;20395;-73
2022/10/20 03:03:00;;;;;;;;;;;6.10;99.90;;;;;;4957507;28;19932;-75
2022/10/20 03:05:26;;;;;;;;;;;6.20;99.90;;;;;;4966596;28;19952;-75
2022/10/20 03:07:51;;;;;;;;;;;6.50;99.90;;;;;;4960929;28;20288;-75
2022/10/20 03:10:17;;;;;;;;;;;6.10;99.90;;;;;;4969825;28;19922;-74
2022/10/20 03:12:43;;;;;;;;;;;6.20;99.90;;;;;;4970656;28;20368;-74
2022/10/20 03:15:08;;;;;;;;;;;6.10;99.90;;;;;;4971972;28;19925;-74
2022/10/20 03:17:34;;;;;;;7.20;4.90;;;6.30;99.90;;;;;;4972640;28;19952;-75
2022/10/20 03:19:59;;;;;;;8.20;6.15;;;6.20;99.90;;;;;;4974892;28;20046;-75
2022/10/20 03:22:25;;;;;;;9.52;5.57;;;6.20;99.90;;;;;;4973438;28;20125;-74
2022/10/20 03:24:51;;;;;;;;;;;6.20;99.90;;;;;;4951864;28;20043;-75
2022/10/20 03:27:16;;;;;;;;;;;6.30;99.90;;;;;;4969019;28;19918;-76
2022/10/20 03:29:42;;;;;;;8.88;6.03;;;6.50;99.90;;;;;;4970436;28;20269;-74
2022/10/20 03:32:07;;;;;;;;;;;6.50;99.90;;;;;;4969412;28;20043;-75
2022/10/20 03:34:33;;;;;;;;;;;6.10;99.90;;;;;;4972766;28;19918;-75
2022/10/20 03:36:58;;;;;;;;;;;6.40;99.90;;;;;;4974129;28;19929;-75
2022/10/20 03:39:24;;;;;;;;;;;6.40;99.90;;;;;;4970106;28;19926;-75
2022/10/20 03:41:49;;;;;;;;;;;6.40;99.90;;;;;;4966630;28;20352;-75
2022/10/20 03:44:15;;;;;;;;;;;6.20;99.90;;;;;;4967144;28;20010;-75
2022/10/20 03:46:41;;;;;;;11.52;6.45;;;6.30;99.90;;;;;;4962193;28;20277;-74
2022/10/20 03:49:06;;;;;;;;;;;6.50;99.90;;;;;;4963174;28;20057;-75
2022/10/20 03:51:32;;;;;;;;;;;6.60;99.90;;;;;;4972073;28;19922;-75
2022/10/20 03:53:57;;;;;;;10.80;6.80;;;6.10;99.90;;;;;;4955774;28;19929;-77
2022/10/20 03:56:23;;;;;;;8.68;6.00;;;6.20;99.90;;;;;;4971646;28;20085;-75
2022/10/20 03:58:48;;;;;;;15.35;7.20;;;6.40;99.90;;;;;;4970567;28;20047;-75
2022/10/20 04:01:16;;;;;;;14.50;7.05;;;6.20;99.90;;;;;;4970343;28;20598;-76
2022/10/20 04:03:42;;;;;;;;;;;6.20;99.90;;;;;;4972706;28;20445;-74
2022/10/20 04:06:08;;;;;;;;;;;6.60;99.90;;;;;;4972152;28;19922;-74
2022/10/20 04:08:33;;;;;;;16.35;6.95;;;6.20;99.90;;;;;;4973703;28;19922;-75
2022/10/20 04:10:59;;;;;;;;;;;6.20;99.90;;;;;;4975674;28;20051;-75
2022/10/20 04:13:25;;;;;;;12.75;6.78;;;6.40;99.90;;;;;;4977946;28;20423;-73
2022/10/20 04:15:50;;;;;;;14.73;7.35;;;6.50;99.90;;;;;;4979380;28;20054;-74
2022/10/20 04:18:16;;;;;;;8.82;5.72;;;6.50;99.90;;;;;;4957995;28;20051;-75
2022/10/20 04:20:41;;;;;;;12.50;6.53;;;6.60;99.90;;;;;;4977076;28;20042;-75
2022/10/20 04:23:07;;;;;;;11.95;6.63;;;6.40;99.90;;;;;;4974546;28;20426;-76
2022/10/20 04:25:33;;;;;;;15.52;8.27;;;6.50;99.90;;;;;;4956646;28;20047;-75
2022/10/20 04:27:59;;;;;;;14.13;6.72;;;6.60;99.90;;;;;;4972501;28;20106;-76
2022/10/20 04:30:25;;;;;;;12.23;7.80;;;6.30;99.90;;;;;;4973908;28;20220;-75
2022/10/20 04:32:50;;;;;;;12.82;6.70;;;6.30;99.90;;;;;;4972893;28;20101;-75
2022/10/20 04:35:16;;;;;;;;;;;6.20;99.90;;;;;;4974213;28;20405;-74
2022/10/20 04:37:41;;;;;;;;;;;6.60;99.90;;;;;;4972506;28;19928;-74
2022/10/20 04:40:07;;;;;;;;;;;6.20;99.90;;;;;;4970272;28;19933;-75
2022/10/20 04:42:33;;;;;;;;;;;6.50;99.90;;;;;;4969518;28;20288;-75
2022/10/20 04:44:58;;;;;;;15.25;9.13;;;6.20;99.90;;;;;;4968110;28;19933;-75
2022/10/20 04:47:24;;;;;;;13.93;8.60;;;6.60;99.90;;;;;;4970295;28;20043;-70
2022/10/20 04:49:50;;;;;;;12.68;8.27;;;6.40;99.90;;;;;;4962961;28;20046;-73
2022/10/20 04:52:16;;;;;;;13.75;8.32;;;6.20;99.90;;;;;;4947829;28;20062;-75
2022/10/20 04:54:41;;;;;;;11.35;7.88;;;6.30;99.90;;;;;;4968903;28;20501;-75
2022/10/20 04:57:09;;;;;;;22.60;8.15;;;6.60;99.90;;;;;;4968426;28;20051;-75
2022/10/20 04:59:35;;;;;;;;;;;6.60;99.90;;;;;;4968026;28;20047;-73
2022/10/20 05:02:00;;;;;;;12.98;7.75;;;6.30;99.90;;;;;;4969786;28;19922;-75
2022/10/20 05:04:26;;;;;;;;;;;6.60;99.90;;;;;;4967480;28;20048;-75
2022/10/20 05:06:51;;;;;;;14.70;8.43;;;6.60;99.90;;;;;;4960136;28;19923;-76
2022/10/20 05:09:17;;;;;;;12.82;8.95;;;6.60;99.90;;;;;;4951077;29;20490;-75
2022/10/20 05:11:43;;;;;;;15.27;9.05;;;6.60;99.90;;;;;;4951398;28;20047;-75
2022/10/20 05:14:08;;;;;;;12.88;8.45;;;6.50;99.90;;;;;;4967179;28;20055;-75
2022/10/20 05:16:34;;;;;;;11.27;8.98;;;6.60;99.90;;;;;;4965317;28;20090;-75
2022/10/20 05:19:00;;;;;;;;;;;6.60;99.90;;;;;;4968636;28;20079;-76
2022/10/20 05:21:29;;;;;;;12.70;9.07;;;6.60;99.90;;;;;;4969583;28;20392;-75
2022/10/20 05:23:56;;;;;;;;;;;6.40;99.90;;;;;;4971622;28;20070;-75
2022/10/20 05:26:22;;;;;;;;;;;6.30;99.90;;;;;;4965929;28;19972;-75
2022/10/20 05:28:48;;;;;;;;;;;6.20;99.90;;;;;;4966560;28;19954;-74
2022/10/20 05:31:15;;;;;;;;;;;6.60;99.90;;;;;;4969784;28;19922;-76
2022/10/20 05:33:48;;;;;;;;;;;6.50;99.90;;;;;;4970834;28;19929;-75
2022/10/20 05:36:14;;;;;;;;;;;6.60;99.90;;;;;;4954170;28;20336;-75
2022/10/20 05:38:40;;;;;;;;;;;6.20;99.90;;;;;;4957054;28;20310;-75
2022/10/20 05:41:10;;;;;;;16.77;10.95;;;6.60;99.90;;;;;;4964600;28;20012;-75
2022/10/20 05:43:35;;;;;;;13.75;10.30;;;6.50;99.90;;;;;;4968674;28;20100;-75
2022/10/20 05:46:01;;;;;;;;;;;6.20;99.90;;;;;;4963812;28;20047;-75
2022/10/20 05:48:27;;;;;;;13.68;10.07;;;6.30;99.90;;;;;;4963352;28;19937;-74
2022/10/20 05:50:53;;;;;;;;;;;6.20;99.90;;;;;;4956871;28;20557;-76
2022/10/20 05:53:18;;;;;;;15.15;10.82;;;6.60;99.90;;;;;;4961043;28;20064;-73
2022/10/20 05:55:44;;;;;;;18.13;10.13;;;6.50;99.90;;;;;;4969200;28;20069;-75
2022/10/20 05:58:09;;;;;;;;;;;6.30;99.90;;;;;;4965191;28;20134;-75
2022/10/20 06:00:40;;;;;;;;;;;6.50;99.90;;;;;;4956255;28;20369;-73
2022/10/20 06:03:07;;;;;;;17.02;12.35;;;6.60;99.90;;;;;;4955073;28;19995;-74
2022/10/20 06:05:33;;;;;;;12.82;9.63;;;6.50;99.90;;;;;;4964208;28;20413;-74
2022/10/20 06:07:59;;;;;;;17.42;12.98;;;6.60;99.90;;;;;;4968807;28;20129;-74
2022/10/20 06:10:24;;;;;;;;;;;6.60;99.90;;;;;;4971444;28;20034;-75
2022/10/20 06:12:50;;;;;;;23.15;11.77;;;6.30;99.90;;;;;;4963439;28;20380;-75
2022/10/20 06:15:16;;;;;;;21.17;12.30;;;6.30;99.90;;;;;;4963098;28;20431;-75
2022/10/20 06:17:41;;;;;;;15.82;11.40;;;6.30;99.90;;;;;;4961853;28;20070;-76
2022/10/20 06:20:07;;;;;;;;;;;6.30;99.90;;;;;;4955786;28;20034;-75
2022/10/20 06:22:33;;;;;;;;;;;6.60;99.90;;;;;;4967777;28;19922;-73
2022/10/20 06:24:58;;;;;;;;;;;6.30;99.90;;;;;;4969429;28;20356;-74
2022/10/20 06:27:24;;;;;;;;;;;6.60;99.90;;;;;;4969511;28;20016;-74
2022/10/20 06:29:49;;;;;;;15.07;11.90;;;6.50;99.90;;;;;;4958872;28;20358;-76
2022/10/20 06:32:17;;;;;;;20.55;13.00;;;6.70;99.90;;;;;;4968280;28;20042;-75
2022/10/20 06:34:42;;;;;;;18.42;13.38;;;6.60;99.90;;;;;;4951813;28;20039;-74
2022/10/20 06:37:08;;;;;;;;;;;6.80;99.90;;;;;;4966050;28;20044;-75
2022/10/20 06:39:35;;;;;;;;;;;6.50;99.90;;;;;;4970616;28;19930;-75
2022/10/20 06:42:02;;;;;;;;;;;6.50;99.90;;;;;;4968946;28;19937;-75
2022/10/20 06:44:28;;;;;;;;;;;6.50;99.90;;;;;;4969470;28;19929;-75
2022/10/20 06:46:54;;;;;;;;;;;6.60;99.90;;;;;;4968060;28;19922;-74
2022/10/20 06:49:19;;;;;;;;;;;6.80;99.90;;;;;;4962573;28;20289;-76
2022/10/20 06:51:45;;;;;;;;;;;6.50;99.90;;;;;;4971055;28;19922;-73
2022/10/20 06:54:11;;;;;;;18.55;12.13;;;6.70;99.90;;;;;;4961800;28;19929;-75
2022/10/20 06:56:38;;;;;;;18.50;12.02;;;6.60;99.90;;;;;;4971429;28;20418;-75
2022/10/20 06:59:04;;;;;;;15.52;12.13;;;6.70;99.90;;;;;;4969758;28;20054;-75
2022/10/20 07:01:34;;;;;;;14.25;12.43;;;6.90;99.90;;;;;;4971670;28;20039;-75
2022/10/20 07:04:02;;;;;;;;;;;6.90;99.90;;;;;;4971475;28;20085;-76
2022/10/20 07:06:30;;;;;;;15.65;11.40;;;6.70;99.90;;;;;;4964972;28;19941;-76
2022/10/20 07:08:57;;;;;;;13.18;11.85;;;6.90;99.90;;;;;;4968969;28;20117;-76
2022/10/20 07:11:28;;;;;;;18.25;12.15;;;6.70;99.90;;;;;;4972276;28;20038;-76
2022/10/20 07:13:54;;;;;;;18.15;13.82;;;7.00;99.90;;;;;;4962403;28;20054;-77
2022/10/20 07:16:22;;;;;;;16.70;12.63;;;7.00;99.90;;;;;;4971942;28;20051;-75
2022/10/20 07:18:48;;;;;;;16.05;13.02;;;7.00;99.90;;;;;;4961104;28;20043;-75
2022/10/20 07:21:20;;;;;;;16.77;13.25;;;6.80;99.90;;;;;;4969222;28;20074;-73
2022/10/20 07:23:47;;;;;;;15.23;12.32;;;6.90;99.90;;;;;;4964228;28;20057;-75
2022/10/20 07:26:18;;;;;;;16.23;10.98;;;7.20;99.90;;;;;;4968960;28;20100;-74
2022/10/20 07:28:47;;;;;;;18.92;12.70;;;7.10;99.90;;;;;;4972483;28;20129;-74
2022/10/20 07:31:18;;;;;;;15.77;12.55;;;7.20;99.90;;;;;;4971751;28;20046;-75
2022/10/20 07:33:44;;;;;;;18.38;12.82;;;7.30;99.90;;;;;;4973468;28;20486;-74
2022/10/20 07:36:16;;;;;;;19.10;13.10;;;7.10;99.90;;;;;;4971953;28;20409;-74
2022/10/20 07:38:42;;;;;;;16.08;13.55;;;7.20;99.90;;;;;;4964649;28;20038;-74
2022/10/20 07:41:08;;;;;;;16.80;13.05;;;7.30;99.90;;;;;;4966458;28;20053;-72
2022/10/20 07:43:35;;;;;;;19.13;12.48;;;7.20;99.90;;;;;;4972503;28;20047;-74
2022/10/20 07:46:00;;;;;;;14.63;11.68;;;7.30;99.90;;;;;;4955497;28;20054;-73
2022/10/20 07:48:26;;;;;;;21.38;13.13;;;7.50;99.90;;;;;;4972747;28;20490;-74
2022/10/20 07:50:52;;;;;;;16.88;13.98;;;7.30;99.90;;;;;;4973393;28;20381;-73
2022/10/20 07:53:18;;;;;;;15.50;13.45;;;7.60;99.90;;;;;;4971977;28;20109;-73
2022/10/20 07:55:44;;;;;;;21.25;13.43;;;7.50;99.90;;;;;;4972680;28;20043;-73
2022/10/20 07:58:11;;;;;;;15.95;13.18;;;7.50;99.90;;;;;;4973017;28;20106;-73
2022/10/20 08:00:37;;;;;;;17.80;14.07;;;7.60;99.90;;;;;;4971280;28;20559;-74
2022/10/20 08:03:03;;;;;;;16.73;13.88;;;7.60;99.90;;;;;;4947401;28;20086;-73
2022/10/20 08:05:29;;;;;;;19.10;14.23;;;7.70;99.90;;;;;;4968770;28;20120;-73
2022/10/20 08:07:55;;;;;;;21.88;12.68;;;7.70;99.90;;;;;;4973256;28;20503;-73
2022/10/20 08:10:21;;;;;;;24.92;14.10;;;8.00;99.90;;;;;;4953287;28;20054;-73
2022/10/20 08:12:46;;;;;;;16.45;11.75;;;8.10;99.90;;;;;;4954131;28;20046;-74
2022/10/20 08:15:12;;;;;;;13.80;11.57;;;7.90;99.90;;;;;;4954057;28;20047;-73
2022/10/20 08:17:38;;;;;;;17.08;11.70;;;8.00;99.90;;;;;;4956432;28;20061;-74
2022/10/20 08:20:05;;;;;;;15.05;11.63;;;8.10;99.90;;;;;;4962030;28;20513;-74
2022/10/20 08:22:30;;;;;;;10.48;9.10;;;8.10;99.90;;;;;;4972595;28;20050;-73
2022/10/20 08:24:56;;;;;;;15.52;11.43;;;8.20;99.90;;;;;;4973126;28;20474;-73
2022/10/20 08:27:22;;;;;;;12.68;11.38;;;8.30;99.90;;;;;;4971733;28;20046;-74
2022/10/20 08:29:47;;;;;;;14.20;10.85;;;8.30;99.90;;;;;;4968450;28;20039;-73
2022/10/20 08:32:13;;;;;;;11.32;10.13;;;8.50;99.90;;;;;;4969938;28;20131;-73
2022/10/20 08:34:39;;;;;;;13.45;10.23;;;8.40;99.90;;;;;;4973025;28;20417;-73
2022/10/20 08:37:05;;;;;;;13.85;9.10;;;8.50;99.90;;;;;;4965163;28;20441;-73
2022/10/20 08:39:31;;;;;;;14.40;9.88;;;8.60;99.90;;;;;;4961655;28;20157;-74
2022/10/20 08:41:58;;;;;;;12.13;9.52;;;8.70;99.90;;;;;;4959057;28;20105;-73
2022/10/20 08:44:27;;;;;;;16.33;11.60;;;8.60;99.90;;;;;;4972494;28;20436;-73
2022/10/20 08:46:53;;;;;;;31.13;12.85;;;8.70;99.90;;;;;;4961585;28;20039;-73
2022/10/20 08:49:26;;;;;;;17.23;12.55;;;8.80;99.90;;;;;;4972703;28;20054;-73
2022/10/20 08:51:52;;;;;;;18.33;10.10;;;8.80;99.90;;;;;;4972627;28;20045;-74
2022/10/20 08:54:18;;;;;;;15.27;10.63;;;8.90;99.90;;;;;;4971135;28;20110;-75
2022/10/20 08:56:45;;;;;;;11.43;9.63;;;9.00;99.90;;;;;;4970231;28;20086;-74
2022/10/20 08:59:28;;;;;;;15.15;9.80;;;9.20;99.90;;;;;;4972937;28;20149;-74
2022/10/20 09:01:56;;;;;;;13.20;9.73;;;9.30;99.90;;;;;;4960484;28;20191;-74
2022/10/20 09:04:43;;;;;;;16.42;10.63;;;9.20;99.90;;;;;;4955577;28;20059;-74
2022/10/20 09:07:34;;;;;;;10.80;9.23;;;9.20;99.90;;;;;;4953521;28;20047;-75
2022/10/20 09:10:30;;;;;;;14.65;9.55;;;9.20;99.90;;;;;;4964140;28;20089;-73
2022/10/20 09:12:57;;;;;;;10.88;7.93;;;9.10;99.90;;;;;;4968108;28;20051;-74
2022/10/20 09:15:25;;;;;;;13.23;8.35;;;9.30;99.90;;;;;;4971221;28;20073;-74
2022/10/20 09:18:05;;;;;;;14.45;10.00;;;9.40;99.90;;;;;;4971906;28;20059;-74
2022/10/20 09:21:07;;;;;;;17.90;10.85;;;9.40;99.90;;;;;;4971868;28;20478;-74
2022/10/20 09:23:41;;;;;;;11.25;8.65;;;9.60;99.90;;;;;;4965893;28;20390;-74
2022/10/20 09:26:16;;;;;;;12.98;8.90;;;9.70;99.90;;;;;;4927264;29;20047;-74
2022/10/20 09:28:42;;;;;;;17.83;10.13;;;9.60;99.90;;;;;;4955507;28;20057;-76
2022/10/20 09:31:34;;;;;;;12.27;9.25;;;9.80;99.90;;;;;;4967304;28;20042;-73
2022/10/20 09:34:00;;;;;;;13.82;8.27;;;9.60;99.90;;;;;;4971848;28;20540;-74
2022/10/20 09:36:32;;;;;;;10.60;7.40;;;9.60;99.90;;;;;;4969911;28;20067;-74
2022/10/20 09:38:58;;;;;;;13.82;9.10;;;9.60;99.90;;;;;;5001369;28;20042;-75
2022/10/20 09:41:29;;;;;;;14.57;9.13;;;9.60;99.90;;;;;;4970602;28;20662;-74
2022/10/20 09:44:05;;;;;;;10.43;9.30;;;9.70;99.90;;;;;;4971498;28;20043;-74
2022/10/20 09:46:42;;;;;;;18.15;9.70;;;9.80;99.90;;;;;;4970040;28;20114;-74
2022/10/20 09:49:22;;;;;;;11.38;8.60;;;9.90;99.90;;;;;;4971865;28;20062;-74
2022/10/20 09:51:48;;;;;;;7.50;6.78;;;9.90;99.90;;;;;;4972120;28;20067;-74
2022/10/20 09:54:19;;;;;;;11.45;8.43;;;10.00;99.90;;;;;;4970075;28;20490;-74
2022/10/20 09:56:48;;;;;;;13.40;9.25;;;10.10;99.90;;;;;;4970801;28;20046;-74
2022/10/20 09:59:40;;;;;;;10.48;8.57;;;10.20;99.90;;;;;;4971348;28;20046;-75
2022/10/20 10:02:15;;;;;;;12.15;8.30;;;10.50;99.90;;;;;;4970793;28;20051;-74
2022/10/20 10:04:44;;;;;;;16.23;8.30;;;10.60;99.90;;;;;;4967877;28;20073;-76
2022/10/20 10:07:31;;;;;;;13.07;8.05;;;10.70;99.90;;;;;;4970536;28;20089;-77
2022/10/20 10:09:58;;;;;;;12.48;8.00;;;10.90;99.90;;;;;;4963878;28;20122;-76
2022/10/20 10:12:26;;;;;;;8.90;8.00;;;11.00;99.90;;;;;;4970698;28;20118;-76
2022/10/20 10:15:06;;;;;;;9.05;6.95;;;10.80;99.90;;;;;;4961736;28;20497;-76
2022/10/20 10:17:39;;;;;;;;;;;11.00;99.90;;;;;;4957679;28;20406;-77
2022/10/20 10:20:33;;;;;;;13.63;8.93;;;11.20;99.90;;;;;;4960256;28;19977;-77
2022/10/20 10:23:21;;;;;;;16.08;7.03;;;11.10;99.90;;;;;;4960471;28;20058;-77
2022/10/20 10:25:48;;;;;;;7.97;6.60;;;11.20;99.90;;;;;;4965225;28;20042;-78
2022/10/20 10:28:29;;;;;;;9.20;7.20;;;11.20;99.90;;;;;;4970573;28;20047;-76
2022/10/20 10:31:15;;;;;;;8.82;6.28;;;11.20;99.90;;;;;;4969518;28;20039;-77
2022/10/20 10:33:40;;;;;;;9.98;7.30;;;11.30;99.90;;;;;;4976750;28;20144;-75
2022/10/20 10:36:14;;;;;;;9.82;7.75;;;11.30;99.90;;;;;;4967515;28;20501;-75
2022/10/20 10:38:40;;;;;;;7.97;7.00;;;11.50;99.90;;;;;;4956401;28;20054;-75
2022/10/20 10:41:49;;;;;;;9.68;6.88;;;11.60;99.90;;;;;;4969417;28;20118;-75
2022/10/20 10:44:25;;;;;;;9.40;7.63;;;11.60;99.90;;;;;;4963841;28;20055;-75
2022/10/20 10:47:29;;;;;;;8.57;5.88;;;11.70;99.90;;;;;;4969340;28;20069;-75
2022/10/20 10:50:27;;;;;;;8.20;5.90;;;11.90;99.90;;;;;;4969719;28;20070;-75
2022/10/20 10:53:14;;;;;;;8.45;6.95;;;11.90;99.90;;;;;;4963302;28;20051;-75
2022/10/20 10:55:50;;;;;;;6.53;5.63;;;12.00;99.90;;;;;;4952032;28;20414;-75
2022/10/20 10:58:31;;;;;;;13.18;7.43;;;11.90;99.90;;;;;;4956823;28;20162;-74
2022/10/20 11:01:00;;;;;;;7.97;6.43;;;12.00;99.90;;;;;;4968877;28;20117;-75
2022/10/20 11:03:47;;;;;;;9.98;6.72;;;12.00;99.90;;;;;;4966867;28;20102;-72
2022/10/20 11:06:15;;;;;;;10.80;6.68;;;12.00;99.90;;;;;;4969111;28;20073;-75
2022/10/20 11:08:59;;;;;;;11.85;6.97;;;12.00;99.90;;;;;;4962068;28;20386;-75
2022/10/20 11:11:44;;;;;;;10.25;7.00;;;12.10;99.90;;;;;;4948779;29;20043;-76
2022/10/20 11:14:17;;;;;;;10.27;7.72;;;12.30;99.90;;;;;;4960152;28;20048;-75
2022/10/20 11:17:02;;;;;;;9.40;7.25;;;12.20;99.90;;;;;;4949749;29;20047;-75
2022/10/20 11:19:58;;;;;;;11.65;7.40;;;12.10;99.90;;;;;;4968907;28;20058;-76
2022/10/20 11:23:00;;;;;;;9.02;7.15;;;12.30;99.90;;;;;;4968626;28;20397;-73
2022/10/20 11:25:36;;;;;;;9.25;7.63;;;12.20;99.90;;;;;;4957383;28;20050;-73
2022/10/20 11:28:01;;;;;;;16.27;8.75;;;12.20;99.90;;;;;;4949586;29;20047;-73
2022/10/20 11:30:29;;;;;;;14.13;8.27;;;12.10;99.90;;;;;;4966539;28;20097;-73
2022/10/20 11:33:13;;;;;;;10.93;8.00;;;12.20;99.90;;;;;;4967819;28;20371;-72
2022/10/20 11:35:49;;;;;;;10.25;8.02;;;12.20;99.90;;;;;;4959605;28;20426;-72
2022/10/20 11:38:39;;;;;;;16.10;8.95;;;12.20;99.90;;;;;;4971362;28;20077;-73
2022/10/20 11:41:33;;;;;;;13.88;8.60;;;12.20;99.90;;;;;;4970173;28;20042;-72
2022/10/20 11:44:27;;;;;;;11.27;8.18;;;12.30;99.90;;;;;;4970799;28;20082;-72
2022/10/20 11:47:01;;;;;;;17.25;9.52;;;12.20;99.90;;;;;;4968818;28;20058;-75
2022/10/20 11:49:30;;;;;;;11.95;7.35;;;12.20;99.90;;;;;;4964769;28;20047;-73
2022/10/20 11:51:59;;;;;;;8.77;7.88;;;12.20;99.90;;;;;;4972464;28;20043;-75
2022/10/20 11:54:49;;;;;;;10.85;7.40;;;12.10;99.90;;;;;;4966570;28;20258;-74
2022/10/20 11:57:43;;;;;;;13.63;9.18;;;12.30;99.90;;;;;;4962309;28;20079;-74
2022/10/20 12:00:38;;;;;;;14.27;9.00;;;12.20;99.90;;;;;;4954435;28;20051;-75
2022/10/20 12:03:38;;;;;;;9.10;6.95;;;12.10;99.90;;;;;;4968392;28;20066;-75
2022/10/20 12:06:25;;;;;;;9.40;7.95;;;12.10;99.90;;;;;;4953956;28;20519;-76
2022/10/20 12:08:53;;;;;;;9.75;7.78;;;12.10;99.90;;;;;;4970328;28;20071;-75
2022/10/20 12:11:47;;;;;;;8.70;7.68;;;12.00;99.90;;;;;;4970505;28;20047;-76
2022/10/20 12:14:12;;;;;;;11.15;8.32;;;12.00;99.90;;;;;;4971184;28;20043;-76
2022/10/20 12:16:53;;;;;;;8.35;7.40;;;12.00;99.90;;;;;;4979208;28;20039;-76
2022/10/20 12:19:21;;;;;;;11.27;8.25;;;12.00;99.90;;;;;;4977208;28;20047;-76
2022/10/20 12:21:58;;;;;;;9.15;7.05;;;12.00;99.90;;;;;;4965914;28;20038;-76
2022/10/20 12:24:38;;;;;;;11.50;8.40;;;12.00;99.90;;;;;;4971945;28;20094;-78
2022/10/20 12:27:07;;;;;;;16.35;8.90;;;12.00;99.90;;;;;;4937265;29;20047;-78
2022/10/20 12:29:32;;;;;;;14.90;10.20;;;12.00;99.90;;;;;;4970027;28;20051;-75
2022/10/20 12:32:20;;;;;;;10.48;9.38;;;12.00;99.90;;;;;;4973390;28;20070;-76
2022/10/20 12:34:57;;;;;;;12.30;9.52;;;11.90;99.90;;;;;;4960926;28;20131;-76
2022/10/20 12:37:23;;;;;;;12.02;9.30;;;11.90;99.90;;;;;;4962181;28;20126;-76
2022/10/20 12:39:51;;;;;;;13.50;10.32;;;11.70;99.90;;;;;;4973432;28;20119;-76
2022/10/20 12:42:23;;;;;;;12.00;9.20;;;11.60;99.90;;;;;;4973804;28;20054;-76
2022/10/20 12:44:49;;;;;;;16.73;10.32;;;11.70;99.90;;;;;;4972514;28;20043;-75
2022/10/20 12:47:23;;;;;;;11.52;8.90;;;11.70;99.90;;;;;;4973425;28;20082;-76
2022/10/20 12:50:00;;;;;;;9.82;8.30;;;11.60;99.90;;;;;;4967761;28;20043;-76
2022/10/20 12:52:31;;;;;;;12.75;8.93;;;11.70;99.90;;;;;;4953808;28;20079;-74
2022/10/20 12:55:14;;;;;;;14.02;9.65;;;11.70;99.90;;;;;;4968866;28;20047;-75
2022/10/20 12:57:41;;;;;;;15.43;10.60;;;11.60;99.90;;;;;;4971713;28;20375;-74
2022/10/20 13:00:34;;;;;;;13.63;11.43;;;11.50;99.90;;;;;;4970449;28;20047;-74
2022/10/20 13:03:01;;;;;;;14.15;10.65;;;11.50;99.90;;;;;;4969915;28;20051;-75
2022/10/20 13:05:44;;;;;;;12.77;11.02;;;11.70;99.90;;;;;;4971811;28;20409;-75
2022/10/20 13:08:22;;;;;;;14.10;10.88;;;11.60;99.90;;;;;;4971228;28;20532;-76
2022/10/20 13:10:49;;;;;;;14.10;10.82;;;11.70;99.90;;;;;;4971820;28;20457;-75
2022/10/20 13:13:17;;;;;;;13.63;11.63;;;11.60;99.90;;;;;;4972266;28;20042;-75
2022/10/20 13:15:43;;;;;;;14.25;10.68;;;11.50;99.90;;;;;;4970244;28;20134;-74
2022/10/20 13:18:11;;;;;;;12.93;10.48;;;11.50;99.90;;;;;;4970695;28;20593;-75
2022/10/20 13:20:58;;;;;;;17.10;12.60;;;11.50;99.90;;;;;;4967706;28;20046;-75
2022/10/20 13:23:42;;;;;;;19.30;11.57;;;11.50;99.90;;;;;;4969735;28;20082;-74
2022/10/20 13:26:20;;;;;;;14.93;10.88;;;11.70;99.90;;;;;;4966103;28;20046;-75